createdAt,value
2022-09-03T00:02:45.857Z,100999.19
2022-09-03T00:08:27.855Z,101013.63
2022-09-03T00:13:38.645Z,101008.75
2022-09-03T00:18:57.431Z,101012.19
2022-09-03T00:24:07.293Z,101013.34
2022-09-03T00:29:21.145Z,101012.09
2022-09-03T00:34:44.180Z,101016.03
2022-09-03T00:39:57.429Z,101017.50
2022-09-03T00:45:52.571Z,101016.50
2022-09-03T00:51:39.186Z,101023.59
2022-09-03T00:57:48.449Z,101006.06
2022-09-03T01:05:58.514Z,100995.41
2022-09-03T01:11:38.815Z,100991.56
2022-09-03T01:22:25.420Z,101013.97
2022-09-03T01:27:46.891Z,101013.16
2022-09-03T01:33:11.156Z,101014.88
2022-09-03T01:38:31.818Z,101010.56
2022-09-03T01:44:05.271Z,101009.75
2022-09-03T01:49:31.342Z,100998.16
2022-09-03T01:55:16.697Z,100999.22
2022-09-03T02:00:32.423Z,101000.38
2022-09-03T02:06:05.247Z,101000.75
2022-09-03T02:11:11.817Z,100994.00
2022-09-03T02:16:21.014Z,100994.81
2022-09-03T02:21:39.423Z,100991.56
2022-09-03T02:26:44.784Z,100987.53
2022-09-03T02:31:52.060Z,100976.38
2022-09-03T02:36:57.871Z,100986.59
2022-09-03T02:42:02.417Z,100987.31
2022-09-03T02:47:07.456Z,100998.28
2022-09-03T02:52:12.386Z,100992.31
2022-09-03T02:57:23.839Z,100992.63
2022-09-03T03:07:42.992Z,100938.38
2022-09-03T03:12:56.760Z,100964.81
2022-09-03T03:18:10.648Z,100963.81
2022-09-03T03:23:16.443Z,100983.44
2022-09-03T03:28:31.374Z,101036.47
2022-09-03T03:33:45.628Z,100991.63
2022-09-03T03:39:11.270Z,101014.94
2022-09-03T03:44:22.982Z,101005.31
2022-09-03T03:49:30.789Z,100986.53
2022-09-03T03:54:41.455Z,100985.72
2022-09-03T04:05:23.223Z,100967.97
2022-09-03T04:10:30.776Z,100950.31
2022-09-03T04:15:43.918Z,100990.56
2022-09-03T04:20:59.306Z,101007.97
2022-09-03T04:26:07.489Z,101009.38
2022-09-03T04:31:18.494Z,101014.81
2022-09-03T04:36:29.267Z,101024.69
2022-09-03T04:41:35.631Z,101017.50
2022-09-03T04:46:44.475Z,101011.94
2022-09-03T04:52:02.061Z,101013.44
2022-09-03T05:02:22.547Z,100998.38
2022-09-03T05:07:54.490Z,100990.38
2022-09-03T05:13:04.470Z,100982.38
2022-09-03T05:18:11.651Z,100975.88
2022-09-03T05:23:24.697Z,100981.44
2022-09-03T05:28:39.222Z,100973.09
2022-09-03T05:39:15.283Z,100998.38
2022-09-03T05:44:29.898Z,100998.13
2022-09-03T05:49:35.680Z,100983.25
2022-09-03T05:54:48.656Z,100980.69
2022-09-03T05:59:59.122Z,100984.34
2022-09-03T06:05:04.495Z,100982.94
2022-09-03T06:10:16.520Z,100982.66
2022-09-03T06:15:33.905Z,100990.69
2022-09-03T06:20:44.942Z,100986.41
2022-09-03T06:26:25.139Z,101001.09
2022-09-03T06:31:29.940Z,101020.44
2022-09-03T06:36:38.863Z,101032.59
2022-09-03T06:41:57.659Z,101028.00
2022-09-03T06:47:18.663Z,101034.03
2022-09-03T06:52:27.225Z,101049.59
2022-09-03T06:57:36.604Z,101053.56
2022-09-03T07:02:45.042Z,101048.88
2022-09-03T07:13:13.294Z,101052.84
2022-09-03T07:18:22.962Z,101046.81
2022-09-03T07:23:31.497Z,101060.84
2022-09-03T07:28:40.629Z,101058.63
2022-09-03T07:33:51.897Z,101053.16
2022-09-03T07:39:02.664Z,101058.38
2022-09-03T07:44:15.669Z,101065.22
2022-09-03T07:49:23.461Z,101068.91
2022-09-03T07:54:32.937Z,101067.47
2022-09-03T07:59:46.252Z,101068.34
2022-09-03T08:10:16.544Z,101071.50
2022-09-03T08:15:23.283Z,101072.28
2022-09-03T08:20:29.838Z,101064.31
2022-09-03T08:25:40.668Z,101077.34
2022-09-03T08:30:45.166Z,101071.16
2022-09-03T08:35:58.322Z,101069.59
2022-09-03T08:41:51.144Z,101076.50
2022-09-03T08:47:40.094Z,101080.31
2022-09-03T08:53:14.579Z,101087.84
2022-09-03T08:58:26.955Z,101092.94
2022-09-03T09:04:15.607Z,101103.88
2022-09-03T09:09:50.073Z,101109.19
2022-09-03T09:15:09.406Z,101118.47
2022-09-03T09:20:41.881Z,101113.72
2022-09-03T09:25:54.370Z,101136.38
2022-09-03T09:31:22.885Z,101137.09
2022-09-03T09:36:26.932Z,101134.84
2022-09-03T09:41:31.773Z,101133.97
2022-09-03T09:46:50.193Z,101142.50
2022-09-03T09:52:21.881Z,101144.16
2022-09-03T09:57:26.951Z,101132.38
2022-09-03T10:02:45.894Z,101137.44
2022-09-03T10:08:26.774Z,101125.38
2022-09-03T10:13:46.886Z,101123.63
2022-09-03T10:19:23.727Z,101125.78
2022-09-03T10:25:09.366Z,101117.31
2022-09-03T10:30:19.242Z,101103.09
2022-09-03T10:36:22.558Z,101107.75
2022-09-03T10:42:05.522Z,101109.47
2022-09-03T10:47:38.832Z,101119.94
2022-09-03T10:53:08.558Z,101122.13
2022-09-03T11:00:26.706Z,101114.97
2022-09-03T11:06:00.541Z,101108.66
2022-09-03T11:11:21.149Z,101107.88
2022-09-03T11:16:58.085Z,101115.47
2022-09-03T11:33:31.099Z,101121.69
2022-09-03T11:38:42.910Z,101114.13
2022-09-03T11:43:48.724Z,101104.16
2022-09-03T11:49:13.144Z,101107.53
2022-09-03T11:54:36.744Z,101097.25
2022-09-03T11:59:48.454Z,101093.22
2022-09-03T12:05:27.065Z,101090.81
2022-09-03T12:11:21.377Z,101093.94
2022-09-03T12:52:39.186Z,101082.22
2022-09-03T12:57:48.213Z,101072.19
2022-09-03T13:03:08.472Z,101065.34
2022-09-03T13:08:18.958Z,101061.72
2022-09-03T13:13:39.512Z,101055.69
2022-09-03T13:19:02.274Z,101043.97
2022-09-03T13:24:07.337Z,101044.75
2022-09-03T13:29:37.090Z,101039.47
2022-09-03T13:34:48.920Z,101035.78
2022-09-03T13:40:00.932Z,101037.34
2022-09-03T13:45:12.121Z,101020.34
2022-09-03T13:50:26.847Z,101020.97
2022-09-03T13:55:31.574Z,101040.06
2022-09-03T14:00:47.925Z,101017.63
2022-09-03T14:06:15.658Z,101019.75
2022-09-03T14:11:55.845Z,101014.47
2022-09-03T14:17:13.805Z,101007.19
2022-09-03T14:22:29.331Z,101013.22
2022-09-03T14:27:34.927Z,101000.88
2022-09-03T14:33:18.063Z,101006.50
2022-09-03T14:38:35.101Z,101002.94
2022-09-03T14:43:55.438Z,101008.78
2022-09-03T14:49:35.671Z,101006.16
2022-09-03T14:54:59.485Z,100999.19
2022-09-03T15:01:06.653Z,101004.47
2022-09-03T15:06:30.674Z,100989.38
2022-09-03T15:11:47.669Z,100987.56
2022-09-03T15:17:05.767Z,100987.75
2022-09-03T15:22:37.925Z,100998.44
2022-09-03T15:27:57.887Z,101010.00
2022-09-03T15:33:18.955Z,101020.66
2022-09-03T15:38:55.228Z,101030.59
2022-09-03T15:44:01.685Z,101034.09
2022-09-03T15:49:13.124Z,101054.78
2022-09-03T15:54:25.357Z,101087.13
2022-09-03T15:59:47.269Z,101075.06
2022-09-03T16:05:06.227Z,101058.22
2022-09-03T16:10:51.148Z,101050.56
2022-09-03T16:16:26.633Z,101051.28
2022-09-03T16:21:49.011Z,101048.84
2022-09-03T16:27:03.660Z,101045.59
2022-09-03T16:32:22.941Z,101053.06
2022-09-03T16:37:31.286Z,101063.28
2022-09-03T16:43:39.565Z,101062.09
2022-09-03T16:48:46.447Z,101089.31
2022-09-03T16:54:20.262Z,101106.47
2022-09-03T16:59:41.233Z,101108.38
2022-09-03T17:05:20.152Z,101090.78
2022-09-03T17:10:53.977Z,101096.69
2022-09-03T17:16:27.596Z,101059.00
2022-09-03T17:22:02.397Z,101043.34
2022-09-03T17:27:16.821Z,101052.41
2022-09-03T17:32:47.526Z,101053.22
2022-09-03T17:38:02.149Z,101051.16
2022-09-03T17:43:23.947Z,101062.69
2022-09-03T17:48:51.387Z,101056.66
2022-09-03T17:54:12.141Z,101059.91
2022-09-03T17:59:17.025Z,101054.38
2022-09-03T18:04:58.236Z,101068.88
2022-09-03T18:10:22.293Z,101056.59
2022-09-03T18:16:11.490Z,101048.94
2022-09-03T18:21:52.282Z,101061.75
2022-09-03T18:27:25.634Z,101050.56
2022-09-03T18:32:48.352Z,101070.50
2022-09-03T18:38:09.165Z,101076.81
2022-09-03T18:43:39.427Z,101051.22
2022-09-03T18:49:08.884Z,101063.13
2022-09-03T18:55:06.380Z,101046.81
2022-09-03T19:00:29.631Z,101076.75
2022-09-03T19:06:01.998Z,100987.59
2022-09-03T19:11:55.016Z,100997.09
2022-09-03T19:17:51.269Z,101030.34
2022-09-03T19:23:14.993Z,101043.88
2022-09-03T19:28:41.141Z,101055.03
2022-09-03T19:34:16.832Z,101090.94
2022-09-03T19:40:04.698Z,101104.47
2022-09-03T19:45:48.433Z,101076.22
2022-09-03T19:51:21.978Z,101085.78
2022-09-03T19:56:48.552Z,101079.69
2022-09-03T20:02:10.920Z,101087.25
2022-09-03T20:07:31.331Z,101105.19
2022-09-03T20:12:37.921Z,101096.38
2022-09-03T20:17:51.736Z,101103.13
2022-09-03T20:23:12.617Z,101101.97
2022-09-03T20:28:22.297Z,101103.50
2022-09-03T20:34:05.318Z,101096.28
2022-09-03T20:39:21.191Z,101107.41
2022-09-03T20:44:41.551Z,101123.72
2022-09-03T20:49:49.477Z,101114.44
2022-09-03T20:55:04.400Z,101102.47
2022-09-03T21:00:14.059Z,101112.34
2022-09-03T21:05:43.115Z,101115.06
2022-09-03T21:11:11.341Z,101118.22
2022-09-03T21:16:35.306Z,101111.81
2022-09-03T21:21:50.318Z,101127.31
2022-09-03T21:26:59.006Z,101119.75
2022-09-03T21:32:41.135Z,101117.41
2022-09-03T21:38:05.167Z,101129.41
2022-09-03T21:43:19.421Z,101139.63
2022-09-03T21:48:26.473Z,101146.41
2022-09-03T21:53:51.076Z,101152.25
2022-09-03T21:59:11.387Z,101143.44
2022-09-03T22:04:15.378Z,101146.69
2022-09-03T22:09:26.842Z,101153.06
2022-09-03T22:14:43.507Z,101154.59
2022-09-03T22:19:48.582Z,101155.34
2022-09-03T22:25:05.288Z,101164.44
2022-09-03T22:30:19.858Z,101170.75
2022-09-03T22:35:44.894Z,101179.03
2022-09-03T22:40:52.513Z,101174.16
2022-09-03T22:46:09.821Z,101181.75
2022-09-03T22:51:13.487Z,101181.28
2022-09-03T22:56:22.459Z,101182.00
2022-09-03T23:01:43.517Z,101191.81
2022-09-03T23:06:56.844Z,101191.19
2022-09-03T23:12:04.366Z,101201.44
2022-09-03T23:22:41.874Z,101195.19
2022-09-03T23:27:58.681Z,101194.28
2022-09-03T23:33:01.399Z,101210.13
2022-09-03T23:38:22.249Z,101212.00
2022-09-03T23:43:50.407Z,101215.50
2022-09-03T23:49:08.939Z,101221.00
2022-09-03T23:54:33.839Z,101226.47
2022-09-03T23:59:53.932Z,101234.03
